createdAt,value
2018-07-01T00:00:05.555Z,12.70
2018-07-01T00:01:04.892Z,12.60
2018-07-01T00:02:05.069Z,12.60
2018-07-01T00:03:05.037Z,12.60
2018-07-01T00:04:04.926Z,12.60
2018-07-01T00:05:05.528Z,12.60
2018-07-01T00:06:05.428Z,12.60
2018-07-01T00:07:05.164Z,12.60
2018-07-01T00:08:05.086Z,12.60
2018-07-01T00:09:05.242Z,12.60
2018-07-01T00:10:05.693Z,12.60
2018-07-01T00:11:05.535Z,12.60
2018-07-01T00:12:04.747Z,12.60
2018-07-01T00:13:05.647Z,12.60
2018-07-01T00:14:04.890Z,12.50
2018-07-01T00:15:05.322Z,12.50
2018-07-01T00:16:05.537Z,12.50
2018-07-01T00:17:05.367Z,12.50
2018-07-01T00:18:05.293Z,12.50
2018-07-01T00:19:05.700Z,12.50
2018-07-01T00:20:05.744Z,12.50
2018-07-01T00:21:05.633Z,12.50
2018-07-01T00:22:05.134Z,12.40
2018-07-01T00:23:05.505Z,12.40
2018-07-01T00:24:05.477Z,12.40
2018-07-01T00:25:05.098Z,12.40
2018-07-01T00:26:04.761Z,12.40
2018-07-01T00:27:05.654Z,12.40
2018-07-01T00:28:05.051Z,12.40
2018-07-01T00:29:04.816Z,12.40
2018-07-01T00:30:04.758Z,12.40
2018-07-01T00:31:05.504Z,12.40
2018-07-01T00:32:05.574Z,12.40
2018-07-01T00:33:05.176Z,12.40
2018-07-01T00:34:05.029Z,12.30
2018-07-01T00:35:04.833Z,12.30
2018-07-01T00:36:04.811Z,12.30
2018-07-01T00:37:05.474Z,12.30
2018-07-01T00:38:05.318Z,12.30
2018-07-01T00:39:05.218Z,12.20
2018-07-01T00:40:05.372Z,12.20
2018-07-01T00:41:05.279Z,12.20
2018-07-01T00:42:05.141Z,12.20
2018-07-01T00:43:04.975Z,12.20
2018-07-01T00:44:04.857Z,12.10
2018-07-01T00:45:04.811Z,12.10
2018-07-01T00:46:04.694Z,12.10
2018-07-01T00:47:05.596Z,12.10
2018-07-01T00:48:05.694Z,12.10
2018-07-01T00:49:05.692Z,12.10
2018-07-01T00:50:05.235Z,12.10
2018-07-01T00:51:04.927Z,12.00
2018-07-01T00:52:05.571Z,12.00
2018-07-01T00:53:06.522Z,12.00
2018-07-01T00:54:04.949Z,12.00
2018-07-01T00:55:05.217Z,12.00
2018-07-01T00:56:05.186Z,12.00
2018-07-01T00:57:05.252Z,12.00
2018-07-01T00:58:04.811Z,11.90
2018-07-01T00:59:04.810Z,12.00
2018-07-01T01:00:04.770Z,11.90
2018-07-01T01:01:04.867Z,12.00
2018-07-01T01:02:04.850Z,11.90
2018-07-01T01:03:04.929Z,11.90
2018-07-01T01:04:04.918Z,11.90
2018-07-01T01:05:05.627Z,11.90
2018-07-01T01:06:05.161Z,11.90
2018-07-01T01:07:04.826Z,11.90
2018-07-01T01:08:05.328Z,11.80
2018-07-01T01:09:05.088Z,11.80
2018-07-01T01:10:04.980Z,11.80
2018-07-01T01:11:05.152Z,11.80
2018-07-01T01:12:05.584Z,11.80
2018-07-01T01:13:05.599Z,11.80
2018-07-01T01:14:04.911Z,11.80
2018-07-01T01:15:04.848Z,11.80
2018-07-01T01:16:04.936Z,11.80
2018-07-01T01:17:05.589Z,11.80
2018-07-01T01:18:04.949Z,11.70
2018-07-01T01:19:04.872Z,11.70
2018-07-01T01:20:05.120Z,11.70
2018-07-01T01:21:05.753Z,11.70
2018-07-01T01:22:05.427Z,11.70
2018-07-01T01:23:05.345Z,11.70
2018-07-01T01:24:05.522Z,11.70
2018-07-01T01:25:04.984Z,11.70
2018-07-01T01:26:05.421Z,11.70
2018-07-01T01:27:05.363Z,11.70
2018-07-01T01:28:05.564Z,11.70
2018-07-01T01:29:05.081Z,11.60
2018-07-01T01:30:04.839Z,11.60
2018-07-01T01:31:04.698Z,11.60
2018-07-01T01:32:04.967Z,11.60
2018-07-01T01:33:04.977Z,11.60
2018-07-01T01:34:05.328Z,11.50
2018-07-01T01:35:05.035Z,11.50
2018-07-01T01:36:05.007Z,11.50
2018-07-01T01:37:05.045Z,11.50
2018-07-01T01:38:05.657Z,11.50
2018-07-01T01:39:05.012Z,11.50
2018-07-01T01:40:05.282Z,11.40
2018-07-01T01:41:05.084Z,11.50
2018-07-01T01:42:05.365Z,11.40
2018-07-01T01:43:10.168Z,11.40
2018-07-01T01:44:05.590Z,11.40
2018-07-01T01:45:04.891Z,11.40
2018-07-01T01:46:05.365Z,11.40
2018-07-01T01:47:05.412Z,11.40
2018-07-01T01:48:05.470Z,11.40
2018-07-01T01:49:05.535Z,11.40
2018-07-01T01:50:05.506Z,11.40
2018-07-01T01:51:04.715Z,11.30
2018-07-01T01:52:04.894Z,11.30
2018-07-01T01:53:05.665Z,11.30
2018-07-01T01:54:04.743Z,11.30
2018-07-01T01:55:05.192Z,11.30
2018-07-01T01:56:05.337Z,11.30
2018-07-01T01:57:05.520Z,11.30
2018-07-01T01:58:05.703Z,11.30
2018-07-01T01:59:05.213Z,11.20
2018-07-01T02:00:04.895Z,11.20
2018-07-01T02:01:05.158Z,11.20
2018-07-01T02:02:04.642Z,11.20
2018-07-01T02:03:04.677Z,11.20
2018-07-01T02:04:05.262Z,11.20
2018-07-01T02:05:05.245Z,11.20
2018-07-01T02:06:05.229Z,11.20
2018-07-01T02:07:04.875Z,11.20
2018-07-01T02:08:05.596Z,11.20
2018-07-01T02:09:05.230Z,11.20
2018-07-01T02:10:05.399Z,11.10
2018-07-01T02:11:05.409Z,11.10
2018-07-01T02:12:05.045Z,11.10
2018-07-01T02:13:04.725Z,11.10
2018-07-01T02:14:04.859Z,11.10
2018-07-01T02:15:05.216Z,11.10
2018-07-01T02:16:05.268Z,11.10
2018-07-01T02:17:05.327Z,11.10
2018-07-01T02:18:05.338Z,11.10
2018-07-01T02:19:05.058Z,11.10
2018-07-01T02:20:05.145Z,11.10
2018-07-01T02:21:04.859Z,11.10
2018-07-01T02:22:06.238Z,11.10
2018-07-01T02:23:05.256Z,11.10
2018-07-01T02:24:04.929Z,11.10
2018-07-01T02:25:05.754Z,11.10
2018-07-01T02:26:05.293Z,11.10
2018-07-01T02:27:04.910Z,11.10
2018-07-01T02:28:05.028Z,11.10
2018-07-01T02:29:04.847Z,11.10
2018-07-01T02:30:04.904Z,11.10
2018-07-01T02:31:05.001Z,11.10
2018-07-01T02:32:04.980Z,11.20
2018-07-01T02:33:04.886Z,11.10
2018-07-01T02:34:05.418Z,11.20
2018-07-01T02:35:05.231Z,11.20
2018-07-01T02:36:04.908Z,11.20
2018-07-01T02:37:05.574Z,11.20
2018-07-01T02:38:04.681Z,11.20
2018-07-01T02:39:10.447Z,11.20
2018-07-01T02:40:05.384Z,11.20
2018-07-01T02:41:05.301Z,11.20
2018-07-01T02:42:05.379Z,11.20
2018-07-01T02:43:05.499Z,11.20
2018-07-01T02:44:05.415Z,11.20
2018-07-01T02:45:05.570Z,11.20
2018-07-01T02:46:05.117Z,11.20
2018-07-01T02:47:05.017Z,11.20
2018-07-01T02:48:05.741Z,11.20
2018-07-01T02:49:05.388Z,11.20
2018-07-01T02:50:05.532Z,11.20
2018-07-01T02:51:05.432Z,11.20
2018-07-01T02:52:05.020Z,11.20
2018-07-01T02:53:05.022Z,11.20
2018-07-01T02:54:05.005Z,11.20
2018-07-01T02:55:04.934Z,11.20
2018-07-01T02:56:05.305Z,11.20
2018-07-01T02:57:05.510Z,11.20
2018-07-01T02:58:05.149Z,11.20
2018-07-01T02:59:04.890Z,11.20
2018-07-01T03:00:04.989Z,11.20
2018-07-01T03:01:04.894Z,11.20
2018-07-01T03:02:05.328Z,11.20
2018-07-01T03:03:05.723Z,11.20
2018-07-01T03:04:04.742Z,11.20
2018-07-01T03:05:04.725Z,11.20
2018-07-01T03:06:05.039Z,11.20
2018-07-01T03:07:04.906Z,11.20
2018-07-01T03:08:05.211Z,11.20
2018-07-01T03:09:05.445Z,11.20
2018-07-01T03:10:05.489Z,11.20
2018-07-01T03:11:04.852Z,11.20
2018-07-01T03:12:05.396Z,11.20
2018-07-01T03:13:05.687Z,11.20
2018-07-01T03:14:04.687Z,11.20
2018-07-01T03:15:04.663Z,11.20
2018-07-01T03:16:04.737Z,11.20
2018-07-01T03:17:04.757Z,11.20
2018-07-01T03:18:04.613Z,11.20
2018-07-01T03:19:04.677Z,11.20
2018-07-01T03:20:05.284Z,11.20
2018-07-01T03:21:05.635Z,11.20
2018-07-01T03:22:04.851Z,11.20
2018-07-01T03:23:08.843Z,11.20
2018-07-01T03:24:05.610Z,11.20
2018-07-01T03:25:05.277Z,11.20
2018-07-01T03:26:05.447Z,11.20
2018-07-01T03:27:05.205Z,11.30
2018-07-01T03:28:05.531Z,11.30
2018-07-01T03:29:05.754Z,11.30
2018-07-01T03:30:05.742Z,11.30
2018-07-01T03:31:04.762Z,11.30
2018-07-01T03:32:05.175Z,11.30
2018-07-01T03:33:04.837Z,11.30
2018-07-01T03:34:05.769Z,11.30
2018-07-01T03:35:05.745Z,11.30
2018-07-01T03:36:05.422Z,11.30
2018-07-01T03:37:05.591Z,11.30
2018-07-01T03:38:04.996Z,11.30
2018-07-01T03:39:05.637Z,11.30
2018-07-01T03:40:05.448Z,11.30
2018-07-01T03:41:05.190Z,11.30
2018-07-01T03:42:05.173Z,11.30
2018-07-01T03:43:05.303Z,11.30
2018-07-01T03:44:05.058Z,11.40
2018-07-01T03:45:04.956Z,11.50
2018-07-01T03:46:05.596Z,11.60
2018-07-01T03:47:05.198Z,11.70
2018-07-01T03:48:05.048Z,11.80
2018-07-01T03:49:04.729Z,11.90
2018-07-01T03:50:05.606Z,12.00
2018-07-01T03:51:04.712Z,12.10
2018-07-01T03:52:04.904Z,12.20
2018-07-01T03:53:04.875Z,12.30
2018-07-01T03:54:04.786Z,12.40
2018-07-01T03:55:05.258Z,12.50
2018-07-01T03:56:05.312Z,12.70
2018-07-01T03:57:05.435Z,12.80
2018-07-01T03:58:05.101Z,12.90
2018-07-01T03:59:04.846Z,13.00
2018-07-01T04:00:05.547Z,13.20
2018-07-01T04:01:05.657Z,13.30
2018-07-01T04:02:05.185Z,13.50
2018-07-01T04:03:05.149Z,13.60
2018-07-01T04:04:05.778Z,13.80
2018-07-01T04:05:05.335Z,13.90
2018-07-01T04:06:05.366Z,14.10
2018-07-01T04:07:05.366Z,14.20
2018-07-01T04:08:05.172Z,14.30
2018-07-01T04:09:05.213Z,14.50
2018-07-01T04:10:04.687Z,14.60
2018-07-01T04:11:04.789Z,14.70
2018-07-01T04:12:09.875Z,14.90
2018-07-01T04:13:04.759Z,15.00
2018-07-01T04:14:04.847Z,15.10
2018-07-01T04:15:04.972Z,15.20
2018-07-01T04:16:04.996Z,15.40
2018-07-01T04:17:05.296Z,15.50
2018-07-01T04:18:05.145Z,15.70
2018-07-01T04:19:04.967Z,15.80
2018-07-01T04:20:04.926Z,15.80
2018-07-01T04:21:10.456Z,15.90
2018-07-01T04:22:04.787Z,16.10
2018-07-01T04:23:05.488Z,16.20
2018-07-01T04:24:05.155Z,16.20
2018-07-01T04:25:05.431Z,16.30
2018-07-01T04:27:43.195Z,16.60
2018-07-01T04:29:32.180Z,16.90
2018-07-01T04:29:32.227Z,16.80
2018-07-01T04:30:05.404Z,16.90
2018-07-01T04:31:05.268Z,17.00
2018-07-01T04:32:05.075Z,17.20
2018-07-01T04:33:05.500Z,17.30
2018-07-01T04:34:05.533Z,17.50
2018-07-01T04:35:04.788Z,17.60
2018-07-01T04:36:05.494Z,17.70
2018-07-01T04:37:05.450Z,17.90
2018-07-01T04:38:05.546Z,18.00
2018-07-01T04:39:05.381Z,18.20
2018-07-01T04:40:04.686Z,18.30
2018-07-01T04:41:05.112Z,18.40
2018-07-01T04:42:05.572Z,18.50
2018-07-01T04:43:04.765Z,18.60
2018-07-01T04:44:04.931Z,18.70
2018-07-01T04:45:04.723Z,18.70
2018-07-01T04:46:05.462Z,18.80
2018-07-01T04:47:05.350Z,18.90
2018-07-01T04:48:04.953Z,18.90
2018-07-01T04:49:05.724Z,19.00
2018-07-01T04:50:04.697Z,19.10
2018-07-01T04:51:04.844Z,19.10
2018-07-01T04:52:04.705Z,19.20
2018-07-01T04:53:04.764Z,19.20
2018-07-01T04:54:04.624Z,19.20
2018-07-01T04:55:05.401Z,19.30
2018-07-01T04:56:05.280Z,19.30
2018-07-01T04:57:05.473Z,19.20
2018-07-01T04:58:04.821Z,19.20
2018-07-01T04:59:04.811Z,19.20
2018-07-01T05:00:05.439Z,19.20
2018-07-01T05:01:05.083Z,19.20
2018-07-01T05:02:05.111Z,19.20
2018-07-01T05:03:04.705Z,19.20
2018-07-01T05:04:05.413Z,19.30
2018-07-01T05:05:05.273Z,19.30
2018-07-01T05:06:05.342Z,19.20
2018-07-01T05:07:05.298Z,19.20
2018-07-01T05:08:05.388Z,19.10
2018-07-01T05:09:05.038Z,19.10
2018-07-01T05:10:04.810Z,19.10
2018-07-01T05:11:05.428Z,19.10
2018-07-01T05:12:05.524Z,19.10
2018-07-01T05:13:05.342Z,19.10
2018-07-01T05:14:06.217Z,19.20
2018-07-01T05:15:05.011Z,19.20
2018-07-01T05:16:05.424Z,19.30
2018-07-01T05:17:05.370Z,19.30
2018-07-01T05:18:04.877Z,19.20
2018-07-01T05:19:04.736Z,19.20
2018-07-01T05:20:05.222Z,19.20
2018-07-01T05:21:04.985Z,19.30
2018-07-01T05:22:04.741Z,19.30
2018-07-01T05:23:04.667Z,19.30
2018-07-01T05:24:04.772Z,19.30
2018-07-01T05:25:05.027Z,19.30
2018-07-01T05:26:05.240Z,19.30
2018-07-01T05:27:04.818Z,19.30
2018-07-01T05:28:05.002Z,19.30
2018-07-01T05:29:04.608Z,19.30
2018-07-01T05:30:04.883Z,19.40
2018-07-01T05:31:05.491Z,19.40
2018-07-01T05:32:05.409Z,19.40
2018-07-01T05:33:05.530Z,19.40
2018-07-01T05:34:05.004Z,19.40
2018-07-01T05:35:04.994Z,19.40
2018-07-01T05:36:05.126Z,19.40
2018-07-01T05:37:04.653Z,19.40
2018-07-01T05:38:05.205Z,19.40
2018-07-01T05:39:05.034Z,19.50
2018-07-01T05:40:05.093Z,19.50
2018-07-01T05:41:05.509Z,19.50
2018-07-01T05:42:04.989Z,19.50
2018-07-01T05:43:04.604Z,19.50
2018-07-01T05:44:05.335Z,19.50
2018-07-01T05:45:04.960Z,19.60
2018-07-01T05:46:05.960Z,19.60
2018-07-01T05:47:05.421Z,19.60
2018-07-01T05:48:05.428Z,19.70
2018-07-01T05:49:04.479Z,19.70
2018-07-01T05:50:04.685Z,19.70
2018-07-01T05:51:05.402Z,19.80
2018-07-01T05:52:04.647Z,19.80
2018-07-01T05:53:05.415Z,19.90
2018-07-01T05:54:05.368Z,19.90
2018-07-01T05:55:05.077Z,20.00
2018-07-01T05:56:05.710Z,20.00
2018-07-01T05:57:05.305Z,20.00
2018-07-01T05:58:05.412Z,20.10
2018-07-01T05:59:05.513Z,20.10
2018-07-01T06:00:05.237Z,20.10
2018-07-01T06:01:05.452Z,20.10
2018-07-01T06:02:05.230Z,20.20
2018-07-01T06:03:04.996Z,20.20
2018-07-01T06:04:05.202Z,20.20
2018-07-01T06:05:04.986Z,20.20
2018-07-01T06:06:04.546Z,20.20
2018-07-01T06:07:04.614Z,20.20
2018-07-01T06:08:05.075Z,20.30
2018-07-01T06:09:05.052Z,20.30
2018-07-01T06:10:04.844Z,20.30
2018-07-01T06:11:05.124Z,20.30
2018-07-01T06:12:05.205Z,20.30
2018-07-01T06:13:05.271Z,20.30
2018-07-01T06:14:05.222Z,20.30
2018-07-01T06:15:05.400Z,20.30
2018-07-01T06:16:05.291Z,20.30
2018-07-01T06:17:04.824Z,20.30
2018-07-01T06:18:05.401Z,20.30
2018-07-01T06:19:05.101Z,20.40
2018-07-01T06:20:05.441Z,20.50
2018-07-01T06:21:05.480Z,20.50
2018-07-01T06:22:04.984Z,20.50
2018-07-01T06:23:04.899Z,20.60
2018-07-01T06:24:05.148Z,20.60
2018-07-01T06:25:05.594Z,20.50
2018-07-01T06:26:04.757Z,20.50
2018-07-01T06:27:05.162Z,20.60
2018-07-01T06:28:09.751Z,20.60
2018-07-01T06:29:05.498Z,20.50
2018-07-01T06:30:04.736Z,20.50
2018-07-01T06:31:05.270Z,20.50
2018-07-01T06:32:05.433Z,20.50
2018-07-01T06:33:05.632Z,20.50
2018-07-01T06:34:05.152Z,20.60
2018-07-01T06:35:04.881Z,20.60
2018-07-01T06:36:05.104Z,20.70
2018-07-01T06:37:04.866Z,20.60
2018-07-01T06:38:04.849Z,20.60
2018-07-01T06:39:05.101Z,20.60
2018-07-01T06:40:04.563Z,20.60
2018-07-01T06:41:04.889Z,20.60
2018-07-01T06:42:04.780Z,20.60
2018-07-01T06:43:05.300Z,20.60
2018-07-01T06:44:05.168Z,20.60
2018-07-01T06:45:05.274Z,20.60
2018-07-01T06:46:04.702Z,20.60
2018-07-01T06:47:05.559Z,20.60
2018-07-01T06:48:05.249Z,20.60
2018-07-01T06:49:05.278Z,20.50
2018-07-01T06:50:04.815Z,20.50
2018-07-01T06:51:04.909Z,20.50
2018-07-01T06:52:05.364Z,20.50
2018-07-01T06:53:05.030Z,20.40
2018-07-01T06:54:05.471Z,20.40
2018-07-01T06:55:04.839Z,20.40
2018-07-01T06:56:05.313Z,20.50
2018-07-01T06:57:04.602Z,20.50
2018-07-01T06:58:04.626Z,20.40
2018-07-01T06:59:05.100Z,20.40
2018-07-01T07:00:04.943Z,20.50
2018-07-01T07:01:04.967Z,20.50
2018-07-01T07:02:05.372Z,20.50
2018-07-01T07:03:04.999Z,20.50
2018-07-01T07:04:04.801Z,20.50
2018-07-01T07:05:04.621Z,20.50
2018-07-01T07:06:04.666Z,20.50
2018-07-01T07:07:05.181Z,20.40
2018-07-01T07:08:04.640Z,20.40
2018-07-01T07:09:05.193Z,20.50
2018-07-01T07:10:05.369Z,20.50
2018-07-01T07:11:05.111Z,20.50
2018-07-01T07:12:05.569Z,20.60
2018-07-01T07:13:05.320Z,20.60
2018-07-01T07:14:05.416Z,20.60
2018-07-01T07:15:05.082Z,20.60
2018-07-01T07:16:04.882Z,20.60
2018-07-01T07:17:04.822Z,20.60
2018-07-01T07:18:05.010Z,20.60
2018-07-01T07:19:05.586Z,20.60
2018-07-01T07:20:05.253Z,20.70
2018-07-01T07:21:05.512Z,20.70
2018-07-01T07:22:05.513Z,20.70
2018-07-01T07:23:04.594Z,20.60
2018-07-01T07:24:04.981Z,20.70
2018-07-01T07:25:05.062Z,20.70
2018-07-01T07:26:05.263Z,20.70
2018-07-01T07:27:05.385Z,20.70
2018-07-01T07:28:05.372Z,20.70
2018-07-01T07:29:05.603Z,20.70
2018-07-01T07:30:04.834Z,20.70
2018-07-01T07:31:04.733Z,20.60
2018-07-01T07:32:04.867Z,20.60
2018-07-01T07:33:04.758Z,20.60
2018-07-01T07:34:04.807Z,20.50
2018-07-01T07:35:10.243Z,20.60
2018-07-01T07:36:05.085Z,20.60
2018-07-01T07:37:04.711Z,20.60
2018-07-01T07:38:05.234Z,20.60
2018-07-01T07:39:05.541Z,20.60
2018-07-01T07:40:05.606Z,20.60
2018-07-01T07:41:05.330Z,20.60
2018-07-01T07:42:04.723Z,20.60
2018-07-01T07:43:05.056Z,20.60
2018-07-01T07:44:05.440Z,20.60
2018-07-01T07:45:05.256Z,20.60
2018-07-01T07:46:05.573Z,20.60
2018-07-01T07:47:04.725Z,20.60
2018-07-01T07:48:04.702Z,20.60
2018-07-01T07:49:05.303Z,20.70
2018-07-01T07:50:05.273Z,20.70
2018-07-01T07:51:04.872Z,20.80
2018-07-01T07:52:04.952Z,20.80
2018-07-01T07:53:05.168Z,20.90
2018-07-01T07:54:04.955Z,20.90
2018-07-01T07:55:04.779Z,21.00
2018-07-01T07:56:05.068Z,21.00
2018-07-01T07:57:04.957Z,21.10
2018-07-01T07:58:05.111Z,21.10
2018-07-01T07:59:05.103Z,21.10
2018-07-01T08:00:04.969Z,21.10
2018-07-01T08:01:04.537Z,21.10
2018-07-01T08:02:04.787Z,21.10
2018-07-01T08:03:04.869Z,21.10
2018-07-01T08:04:04.891Z,21.10
2018-07-01T08:05:05.009Z,21.10
2018-07-01T08:06:05.379Z,21.10
2018-07-01T08:07:04.686Z,21.10
2018-07-01T08:08:04.804Z,21.00
2018-07-01T08:09:05.169Z,21.00
2018-07-01T08:10:04.874Z,21.00
2018-07-01T08:11:05.029Z,20.90
2018-07-01T08:12:05.087Z,20.90
2018-07-01T08:13:04.684Z,20.90
2018-07-01T08:14:05.364Z,20.90
2018-07-01T08:15:05.150Z,21.00
2018-07-01T08:16:04.724Z,21.00
2018-07-01T08:17:04.607Z,21.00
2018-07-01T08:18:05.385Z,21.00
2018-07-01T08:19:04.810Z,21.00
2018-07-01T08:20:05.182Z,21.00
2018-07-01T08:21:05.357Z,21.00
2018-07-01T08:22:05.283Z,21.00
2018-07-01T08:23:05.098Z,21.00
2018-07-01T08:24:05.222Z,21.00
2018-07-01T08:25:05.167Z,20.90
2018-07-01T08:26:05.662Z,20.90
2018-07-01T08:27:04.910Z,20.90
2018-07-01T08:28:04.995Z,20.90
2018-07-01T08:29:05.425Z,20.90
2018-07-01T08:30:04.818Z,20.90
2018-07-01T08:31:04.946Z,20.90
2018-07-01T08:32:04.768Z,20.80
2018-07-01T08:33:04.605Z,20.80
2018-07-01T08:34:05.116Z,20.80
2018-07-01T08:35:05.554Z,20.80
2018-07-01T08:36:05.068Z,20.70
2018-07-01T08:37:05.523Z,20.70
2018-07-01T08:38:05.340Z,20.70
2018-07-01T08:39:04.824Z,20.70
2018-07-01T08:40:04.604Z,20.70
2018-07-01T08:41:05.259Z,20.70
2018-07-01T08:42:04.766Z,20.70
2018-07-01T08:43:04.934Z,20.60
2018-07-01T08:44:05.320Z,20.50
2018-07-01T08:45:04.806Z,20.40
2018-07-01T08:46:04.716Z,20.40
2018-07-01T08:47:05.449Z,20.30
2018-07-01T08:48:04.701Z,20.30
2018-07-01T08:49:04.981Z,20.20
2018-07-01T08:50:04.568Z,20.20
2018-07-01T08:51:05.157Z,20.20
2018-07-01T08:52:05.497Z,20.10
2018-07-01T08:53:04.724Z,20.10
2018-07-01T08:54:05.425Z,20.10
2018-07-01T08:55:10.123Z,20.20
2018-07-01T08:56:04.839Z,20.20
2018-07-01T08:57:05.636Z,20.30
2018-07-01T08:58:05.266Z,20.30
2018-07-01T08:59:05.258Z,20.30
2018-07-01T09:00:05.417Z,20.40
2018-07-01T09:01:05.248Z,20.40
2018-07-01T09:02:04.556Z,20.40
2018-07-01T09:03:05.309Z,20.40
2018-07-01T09:04:05.256Z,20.50
2018-07-01T09:05:05.307Z,20.50
2018-07-01T09:06:05.053Z,20.50
2018-07-01T09:07:05.489Z,20.50
2018-07-01T09:08:04.883Z,20.50
2018-07-01T09:09:05.300Z,20.50
2018-07-01T09:10:04.830Z,20.40
2018-07-01T09:11:04.854Z,20.40
2018-07-01T09:12:04.963Z,20.40
2018-07-01T09:13:05.434Z,20.40
2018-07-01T09:14:05.084Z,20.40
2018-07-01T09:15:04.943Z,20.50
2018-07-01T09:16:05.333Z,20.50
2018-07-01T09:17:04.901Z,20.60
2018-07-01T09:18:05.564Z,20.60
2018-07-01T09:19:05.527Z,20.70
2018-07-01T09:20:05.668Z,20.70
2018-07-01T09:21:04.682Z,20.70
2018-07-01T09:22:04.696Z,20.80
2018-07-01T09:23:04.760Z,20.80
2018-07-01T09:24:05.545Z,20.70
2018-07-01T09:25:04.789Z,20.60
2018-07-01T09:26:04.699Z,20.50
2018-07-01T09:27:05.111Z,20.50
2018-07-01T09:28:05.163Z,20.50
2018-07-01T09:29:04.957Z,20.40
2018-07-01T09:30:04.835Z,20.40
2018-07-01T09:31:04.619Z,20.40
2018-07-01T09:32:04.801Z,20.40
2018-07-01T09:33:04.681Z,20.40
2018-07-01T09:34:04.958Z,20.40
2018-07-01T09:35:05.401Z,20.40
2018-07-01T09:36:04.763Z,20.40
2018-07-01T09:37:05.209Z,20.50
2018-07-01T09:38:05.139Z,20.50
2018-07-01T09:39:05.435Z,20.50
2018-07-01T09:40:04.857Z,20.50
2018-07-01T09:41:07.708Z,20.50
2018-07-01T09:42:06.254Z,20.60
2018-07-01T09:43:04.876Z,20.60
2018-07-01T09:44:05.227Z,20.70
2018-07-01T09:45:04.717Z,20.60
2018-07-01T09:46:04.562Z,20.70
2018-07-01T09:47:05.113Z,20.60
2018-07-01T09:48:04.796Z,20.70
2018-07-01T09:49:05.348Z,20.70
2018-07-01T09:50:04.918Z,20.70
2018-07-01T09:51:04.879Z,20.70
2018-07-01T09:52:05.178Z,20.70
2018-07-01T09:53:04.902Z,20.70
2018-07-01T09:54:04.847Z,20.70
2018-07-01T09:55:04.987Z,20.70
2018-07-01T09:56:04.821Z,20.70
2018-07-01T09:57:05.001Z,20.70
2018-07-01T09:58:05.473Z,20.70
2018-07-01T09:59:05.027Z,20.70
2018-07-01T10:00:04.952Z,20.70
2018-07-01T10:01:05.083Z,20.70
2018-07-01T10:02:04.656Z,20.80
2018-07-01T10:03:04.965Z,20.80
2018-07-01T10:04:05.453Z,20.80
2018-07-01T10:05:04.770Z,20.90
2018-07-01T10:06:05.176Z,20.90
2018-07-01T10:07:05.083Z,21.00
2018-07-01T10:08:05.406Z,21.00
2018-07-01T10:09:04.773Z,20.90
2018-07-01T10:10:04.514Z,20.90
2018-07-01T10:11:04.979Z,20.90
2018-07-01T10:12:05.298Z,20.90
2018-07-01T10:13:05.236Z,20.90
2018-07-01T10:14:05.289Z,20.90
2018-07-01T10:15:04.783Z,21.00
2018-07-01T10:16:05.172Z,21.00
2018-07-01T10:17:05.623Z,21.00
2018-07-01T10:18:05.246Z,21.00
2018-07-01T10:19:04.774Z,20.90
2018-07-01T10:20:05.462Z,20.90
2018-07-01T10:21:05.165Z,20.90
2018-07-01T10:22:05.305Z,21.00
2018-07-01T10:23:05.367Z,21.00
2018-07-01T10:24:04.975Z,21.10
2018-07-01T10:25:04.817Z,21.10
2018-07-01T10:26:05.400Z,21.10
2018-07-01T10:27:05.391Z,21.10
2018-07-01T10:28:05.155Z,21.10
2018-07-01T10:29:05.377Z,21.10
2018-07-01T10:30:05.166Z,21.00
2018-07-01T10:31:04.944Z,21.00
2018-07-01T10:32:04.995Z,21.00
2018-07-01T10:33:04.811Z,21.00
2018-07-01T10:34:05.317Z,21.10
2018-07-01T10:35:05.309Z,21.10
2018-07-01T10:36:05.009Z,21.10
2018-07-01T10:37:04.632Z,21.10
2018-07-01T10:38:04.905Z,21.20
2018-07-01T10:39:05.248Z,21.20
2018-07-01T10:40:05.302Z,21.20
2018-07-01T10:41:04.865Z,21.30
2018-07-01T10:42:05.478Z,21.20
2018-07-01T10:43:05.429Z,21.20
2018-07-01T10:44:05.350Z,21.20
2018-07-01T10:45:04.660Z,21.20
2018-07-01T10:46:05.215Z,21.20
2018-07-01T10:47:05.058Z,21.20
2018-07-01T10:48:05.106Z,21.20
2018-07-01T10:49:05.071Z,21.10
2018-07-01T10:50:04.810Z,21.10
2018-07-01T10:51:05.270Z,21.10
2018-07-01T10:52:04.816Z,21.00
2018-07-01T10:53:04.522Z,21.00
2018-07-01T10:54:05.334Z,21.00
2018-07-01T10:55:04.746Z,21.00
2018-07-01T10:56:04.747Z,21.00
2018-07-01T10:57:04.675Z,20.90
2018-07-01T10:58:04.881Z,20.90
2018-07-01T10:59:04.628Z,21.00
2018-07-01T11:00:05.298Z,21.00
2018-07-01T11:01:05.124Z,21.00
2018-07-01T11:02:05.488Z,21.00
2018-07-01T11:03:04.905Z,21.00
2018-07-01T11:04:04.712Z,21.00
2018-07-01T11:05:05.050Z,21.00
2018-07-01T11:06:04.851Z,21.00
2018-07-01T11:07:05.359Z,21.00
2018-07-01T11:08:05.253Z,21.10
2018-07-01T11:09:05.217Z,21.10
2018-07-01T11:10:04.960Z,21.10
2018-07-01T11:11:05.479Z,21.10
2018-07-01T11:12:05.172Z,21.20
2018-07-01T11:13:04.896Z,21.20
2018-07-01T11:14:05.156Z,21.30
2018-07-01T11:15:04.740Z,21.30
2018-07-01T11:16:04.742Z,21.30
2018-07-01T11:17:05.557Z,21.30
2018-07-01T11:18:04.845Z,21.30
2018-07-01T11:19:05.220Z,21.30
2018-07-01T11:20:04.577Z,21.30
2018-07-01T11:21:04.942Z,21.30
2018-07-01T11:22:04.983Z,21.30
2018-07-01T11:23:05.060Z,21.30
2018-07-01T11:24:04.837Z,21.30
2018-07-01T11:25:05.420Z,21.30
2018-07-01T11:26:04.766Z,21.30
2018-07-01T11:27:05.898Z,21.20
2018-07-01T11:28:04.970Z,21.20
2018-07-01T11:29:05.467Z,21.20
2018-07-01T11:30:04.839Z,21.20
2018-07-01T11:31:04.717Z,21.30
2018-07-01T11:32:05.172Z,21.30
2018-07-01T11:33:04.841Z,21.30
2018-07-01T11:34:10.065Z,21.30
2018-07-01T11:35:04.776Z,21.30
2018-07-01T11:36:05.262Z,21.30
2018-07-01T11:37:05.084Z,21.30
2018-07-01T11:38:05.130Z,21.40
2018-07-01T11:39:04.629Z,21.40
2018-07-01T11:40:05.173Z,21.40
2018-07-01T11:41:04.952Z,21.50
2018-07-01T11:42:04.887Z,21.50
2018-07-01T11:43:04.835Z,21.50
2018-07-01T11:44:06.606Z,21.50
2018-07-01T11:45:05.420Z,21.50
2018-07-01T11:46:04.807Z,21.50
2018-07-01T11:47:05.570Z,21.40
2018-07-01T11:48:04.684Z,21.40
2018-07-01T11:49:05.372Z,21.40
2018-07-01T11:50:04.562Z,21.30
2018-07-01T11:51:05.370Z,21.30
2018-07-01T11:52:05.056Z,21.30
2018-07-01T11:53:04.833Z,21.30
2018-07-01T11:54:05.106Z,21.30
2018-07-01T11:55:05.098Z,21.20
2018-07-01T11:56:05.439Z,21.20
2018-07-01T11:57:05.005Z,21.20
2018-07-01T11:58:05.082Z,21.20
2018-07-01T11:59:04.535Z,21.20
2018-07-01T12:00:05.177Z,21.20
2018-07-01T12:01:05.269Z,21.20
2018-07-01T12:02:04.751Z,21.20
2018-07-01T12:03:04.826Z,21.10
2018-07-01T12:04:04.959Z,21.10
2018-07-01T12:05:16.663Z,21.10
2018-07-01T12:06:05.150Z,21.10
2018-07-01T12:07:04.789Z,21.10
2018-07-01T12:08:05.526Z,21.20
2018-07-01T12:09:04.644Z,21.20
2018-07-01T12:10:04.698Z,21.30
2018-07-01T12:11:05.069Z,21.30
2018-07-01T12:12:04.864Z,21.30
2018-07-01T12:13:05.137Z,21.40
2018-07-01T12:14:05.055Z,21.30
2018-07-01T12:15:05.438Z,21.30
2018-07-01T12:16:05.264Z,21.30
2018-07-01T12:17:04.804Z,21.30
2018-07-01T12:18:05.245Z,21.30
2018-07-01T12:19:05.312Z,21.30
2018-07-01T12:20:04.621Z,21.30
2018-07-01T12:21:04.616Z,21.30
2018-07-01T12:22:05.052Z,21.30
2018-07-01T12:23:05.389Z,21.40
2018-07-01T12:24:04.975Z,21.40
2018-07-01T12:25:04.732Z,21.40
2018-07-01T12:26:05.304Z,21.40
2018-07-01T12:27:05.320Z,21.40
2018-07-01T12:28:04.831Z,21.50
2018-07-01T12:29:05.350Z,21.50
2018-07-01T12:30:04.878Z,21.50
2018-07-01T12:31:04.746Z,21.50
2018-07-01T12:32:05.139Z,21.50
2018-07-01T12:33:05.116Z,21.50
2018-07-01T12:34:04.836Z,21.50
2018-07-01T12:35:05.236Z,21.50
2018-07-01T12:36:05.531Z,21.50
2018-07-01T12:37:05.219Z,21.50
2018-07-01T12:38:05.216Z,21.40
2018-07-01T12:39:04.567Z,21.40
2018-07-01T12:40:05.491Z,21.40
2018-07-01T12:41:05.408Z,21.40
2018-07-01T12:42:05.504Z,21.40
2018-07-01T12:43:05.153Z,21.30
2018-07-01T12:44:05.140Z,21.40
2018-07-01T12:45:05.282Z,21.40
2018-07-01T12:46:05.494Z,21.40
2018-07-01T12:47:04.834Z,21.50
2018-07-01T12:48:05.248Z,21.50
2018-07-01T12:49:04.950Z,21.50
2018-07-01T12:50:05.246Z,21.60
2018-07-01T12:51:05.427Z,21.60
2018-07-01T12:52:05.239Z,21.60
2018-07-01T12:53:05.094Z,21.60